createdAt,value
2022-08-28T00:00:52.284Z,0.00
2022-08-28T00:01:52.273Z,0.00
2022-08-28T00:02:52.450Z,0.00
2022-08-28T00:03:52.252Z,0.00
2022-08-28T00:04:52.300Z,0.00
2022-08-28T00:05:52.233Z,0.00
2022-08-28T00:06:52.222Z,0.00
2022-08-28T00:07:52.208Z,0.00
2022-08-28T00:08:52.198Z,0.00
2022-08-28T00:09:52.188Z,0.00
2022-08-28T00:10:52.183Z,0.00
2022-08-28T00:11:52.165Z,0.00
2022-08-28T00:12:52.155Z,0.00
2022-08-28T00:13:52.144Z,0.00
2022-08-28T00:14:52.135Z,0.00
2022-08-28T00:15:52.172Z,0.00
2022-08-28T00:16:52.117Z,0.00
2022-08-28T00:17:52.100Z,0.00
2022-08-28T00:18:52.090Z,0.00
2022-08-28T00:19:52.079Z,0.00
2022-08-28T00:20:52.070Z,0.00
2022-08-28T00:21:52.059Z,0.00
2022-08-28T00:22:52.068Z,0.00
2022-08-28T00:23:52.035Z,0.00
2022-08-28T00:24:52.025Z,0.00
2022-08-28T00:25:52.013Z,0.00
2022-08-28T00:26:52.001Z,0.00
2022-08-28T00:27:51.991Z,0.00
2022-08-28T00:28:52.010Z,0.00
2022-08-28T00:29:51.969Z,0.00
2022-08-28T00:30:52.013Z,0.00
2022-08-28T00:31:51.948Z,0.00
2022-08-28T00:32:51.937Z,0.00
2022-08-28T00:33:51.927Z,0.00
2022-08-28T00:34:51.931Z,0.00
2022-08-28T00:35:51.906Z,0.00
2022-08-28T00:36:51.894Z,0.00
2022-08-28T00:37:51.885Z,0.00
2022-08-28T00:38:51.872Z,0.00
2022-08-28T00:39:51.905Z,0.00
2022-08-28T00:40:51.916Z,0.00
2022-08-28T00:41:51.840Z,0.00
2022-08-28T00:42:52.828Z,0.00
2022-08-28T00:43:51.818Z,0.00
2022-08-28T00:44:51.806Z,0.00
2022-08-28T00:45:51.798Z,0.00
2022-08-28T00:46:51.841Z,0.00
2022-08-28T00:47:51.774Z,0.00
2022-08-28T00:48:51.765Z,0.00
2022-08-28T00:49:51.752Z,0.00
2022-08-28T00:50:51.741Z,0.00
2022-08-28T00:51:51.730Z,0.00
2022-08-28T00:52:51.751Z,0.00
2022-08-28T00:53:51.709Z,0.00
2022-08-28T00:54:59.757Z,0.00
2022-08-28T00:55:52.686Z,0.00
2022-08-28T00:56:51.676Z,0.00
2022-08-28T00:57:51.665Z,0.00
2022-08-28T00:58:51.660Z,0.00
2022-08-28T00:59:51.643Z,0.00
2022-08-28T01:00:51.632Z,0.00
2022-08-28T01:01:51.671Z,0.00
2022-08-28T01:02:51.626Z,0.00
2022-08-28T01:03:51.601Z,0.00
2022-08-28T01:04:51.595Z,0.00
2022-08-28T01:05:51.578Z,0.00
2022-08-28T01:06:51.568Z,0.00
2022-08-28T01:07:51.556Z,0.00
2022-08-28T01:08:51.545Z,0.00
2022-08-28T01:09:51.538Z,0.00
2022-08-28T01:10:51.539Z,0.00
2022-08-28T01:11:51.514Z,0.00
2022-08-28T01:12:51.501Z,0.00
2022-08-28T01:13:51.491Z,0.00
2022-08-28T01:14:51.481Z,0.00
2022-08-28T01:15:51.597Z,0.00
2022-08-28T01:16:51.465Z,0.00
2022-08-28T01:17:51.448Z,0.00
2022-08-28T01:18:51.438Z,0.00
2022-08-28T01:19:51.426Z,0.00
2022-08-28T01:20:51.418Z,0.00
2022-08-28T01:21:51.404Z,0.00
2022-08-28T01:22:51.399Z,0.00
2022-08-28T01:23:51.382Z,0.00
2022-08-28T01:24:51.373Z,0.00
2022-08-28T01:25:51.361Z,0.00
2022-08-28T01:26:51.350Z,0.00
2022-08-28T01:27:51.339Z,0.00
2022-08-28T01:28:51.337Z,0.00
2022-08-28T01:29:51.318Z,0.00
2022-08-28T01:30:51.373Z,0.00
2022-08-28T01:31:51.296Z,0.00
2022-08-28T01:32:51.285Z,0.00
2022-08-28T01:33:51.274Z,0.00
2022-08-28T01:34:51.292Z,0.00
2022-08-28T01:35:51.252Z,0.00
2022-08-28T01:36:51.241Z,0.00
2022-08-28T01:37:51.230Z,0.00
2022-08-28T01:38:51.220Z,0.00
2022-08-28T01:39:51.208Z,0.00
2022-08-28T01:40:51.218Z,0.00
2022-08-28T01:41:51.186Z,0.00
2022-08-28T01:42:51.176Z,0.00
2022-08-28T01:43:51.166Z,0.00
2022-08-28T01:44:51.155Z,0.00
2022-08-28T01:45:51.173Z,0.00
2022-08-28T01:46:51.163Z,0.00
2022-08-28T01:47:51.451Z,0.00
2022-08-28T01:48:51.111Z,0.00
2022-08-28T01:49:51.101Z,0.00
2022-08-28T01:50:51.091Z,0.00
2022-08-28T01:51:51.302Z,0.00
2022-08-28T01:52:51.074Z,0.00
2022-08-28T01:53:51.056Z,0.00
2022-08-28T01:54:51.045Z,0.00
2022-08-28T01:55:51.035Z,0.00
2022-08-28T01:56:51.026Z,0.00
2022-08-28T01:57:51.013Z,0.00
2022-08-28T01:58:51.007Z,0.00
2022-08-28T01:59:50.992Z,0.00
2022-08-28T02:00:50.981Z,0.00
2022-08-28T02:01:51.016Z,0.00
2022-08-28T02:02:50.963Z,0.00
2022-08-28T02:03:50.975Z,0.00
2022-08-28T02:04:51.000Z,0.00
2022-08-28T02:05:50.929Z,0.00
2022-08-28T02:06:50.915Z,0.00
2022-08-28T02:07:50.904Z,0.00
2022-08-28T02:08:50.893Z,0.00
2022-08-28T02:09:50.881Z,0.00
2022-08-28T02:10:50.882Z,0.00
2022-08-28T02:11:50.861Z,0.00
2022-08-28T02:12:50.850Z,0.00
2022-08-28T02:13:50.890Z,0.00
2022-08-28T02:14:50.828Z,0.00
2022-08-28T02:15:50.914Z,0.00
2022-08-28T02:16:50.828Z,0.00
2022-08-28T02:17:50.796Z,0.00
2022-08-28T02:18:50.784Z,0.00
2022-08-28T02:19:50.773Z,0.00
2022-08-28T02:20:50.762Z,0.00
2022-08-28T02:21:50.753Z,0.00
2022-08-28T02:22:50.758Z,0.00
2022-08-28T02:23:50.731Z,0.00
2022-08-28T02:24:50.719Z,0.00
2022-08-28T02:25:50.780Z,0.00
2022-08-28T02:26:50.700Z,0.00
2022-08-28T02:27:50.687Z,0.00
2022-08-28T02:28:50.682Z,0.00
2022-08-28T02:29:50.665Z,0.00
2022-08-28T02:30:50.671Z,0.00
2022-08-28T02:31:50.643Z,0.00
2022-08-28T02:32:50.633Z,0.00
2022-08-28T02:33:50.622Z,0.00
2022-08-28T02:34:50.620Z,0.00
2022-08-28T02:35:50.603Z,0.00
2022-08-28T02:36:50.592Z,0.00
2022-08-28T02:37:50.582Z,0.00
2022-08-28T02:38:55.358Z,0.00
2022-08-28T02:39:51.662Z,0.00
2022-08-28T02:40:50.545Z,0.00
2022-08-28T02:41:50.534Z,0.00
2022-08-28T02:42:50.525Z,0.00
2022-08-28T02:43:50.512Z,0.00
2022-08-28T02:44:50.501Z,0.00
2022-08-28T02:45:50.551Z,0.00
2022-08-28T02:46:50.481Z,0.00
2022-08-28T02:47:50.470Z,0.00
2022-08-28T02:48:50.462Z,0.00
2022-08-28T02:49:50.447Z,0.00
2022-08-28T02:50:50.436Z,0.00
2022-08-28T02:51:50.447Z,0.00
2022-08-28T02:52:50.415Z,0.00
2022-08-28T02:53:50.414Z,0.00
2022-08-28T02:54:50.394Z,0.00
2022-08-28T02:55:50.385Z,0.00
2022-08-28T02:56:50.371Z,0.00
2022-08-28T02:57:50.380Z,0.00
2022-08-28T02:58:50.351Z,0.00
2022-08-28T02:59:50.338Z,0.00
2022-08-28T03:00:50.332Z,0.00
2022-08-28T03:01:50.361Z,0.00
2022-08-28T03:02:50.353Z,0.00
2022-08-28T03:03:50.300Z,0.00
2022-08-28T03:04:50.285Z,0.00
2022-08-28T03:05:50.274Z,0.00
2022-08-28T03:06:50.263Z,0.00
2022-08-28T03:07:50.252Z,0.00
2022-08-28T03:08:50.240Z,0.00
2022-08-28T03:09:50.239Z,0.00
2022-08-28T03:10:50.218Z,0.00
2022-08-28T03:11:50.208Z,0.00
2022-08-28T03:12:50.198Z,0.00
2022-08-28T03:13:50.186Z,0.00
2022-08-28T03:14:50.177Z,0.00
2022-08-28T03:15:51.975Z,0.00
2022-08-28T03:16:51.213Z,0.00
2022-08-28T03:17:50.785Z,0.00
2022-08-28T03:18:50.132Z,0.00
2022-08-28T03:19:50.149Z,0.00
2022-08-28T03:20:50.113Z,0.00
2022-08-28T03:21:50.119Z,0.00
2022-08-28T03:22:50.089Z,0.00
2022-08-28T03:23:50.079Z,0.00
2022-08-28T03:24:50.067Z,0.00
2022-08-28T03:25:50.059Z,0.00
2022-08-28T03:26:50.044Z,0.00
2022-08-28T03:27:50.064Z,0.00
2022-08-28T03:28:50.024Z,0.00
2022-08-28T03:29:50.013Z,0.00
2022-08-28T03:30:50.070Z,0.00
2022-08-28T03:31:49.990Z,0.00
2022-08-28T03:32:49.979Z,0.00
2022-08-28T03:33:49.983Z,0.00
2022-08-28T03:34:49.958Z,0.00
2022-08-28T03:35:49.947Z,0.00
2022-08-28T03:36:49.936Z,0.00
2022-08-28T03:37:49.925Z,0.00
2022-08-28T03:38:49.922Z,0.00
2022-08-28T03:39:49.908Z,0.00
2022-08-28T03:40:49.892Z,0.00
2022-08-28T03:41:49.881Z,0.00
2022-08-28T03:42:53.067Z,0.00
2022-08-28T03:43:49.860Z,0.00
2022-08-28T03:44:49.849Z,0.00
2022-08-28T03:45:49.898Z,0.00
2022-08-28T03:46:49.827Z,0.00
2022-08-28T03:47:49.819Z,0.00
2022-08-28T03:48:49.806Z,0.00
2022-08-28T03:49:49.795Z,0.00
2022-08-28T03:50:49.784Z,0.00
2022-08-28T03:51:49.798Z,0.00
2022-08-28T03:52:49.762Z,0.00
2022-08-28T03:53:49.753Z,4.00
2022-08-28T03:54:49.743Z,4.00
2022-08-28T03:55:49.730Z,4.00
2022-08-28T03:56:49.719Z,4.00
2022-08-28T03:57:49.754Z,4.00
2022-08-28T03:58:49.697Z,0.00
2022-08-28T03:59:49.687Z,0.00
2022-08-28T04:00:49.692Z,0.00
2022-08-28T04:01:49.747Z,0.00
2022-08-28T04:02:49.653Z,0.00
2022-08-28T04:03:49.649Z,0.00
2022-08-28T04:04:49.632Z,4.00
2022-08-28T04:05:49.622Z,4.00
2022-08-28T04:06:49.611Z,4.00
2022-08-28T04:07:49.602Z,4.00
2022-08-28T04:08:49.589Z,8.00
2022-08-28T04:09:49.595Z,8.00
2022-08-28T04:10:49.567Z,8.00
2022-08-28T04:11:49.563Z,8.00
2022-08-28T04:12:49.545Z,4.00
2022-08-28T04:13:49.535Z,4.00
2022-08-28T04:14:49.523Z,8.00
2022-08-28T04:15:49.519Z,12.00
2022-08-28T04:16:49.546Z,8.00
2022-08-28T04:17:49.490Z,12.00
2022-08-28T04:18:49.481Z,12.00
2022-08-28T04:19:49.469Z,12.00
2022-08-28T04:20:49.459Z,12.00
2022-08-28T04:21:49.454Z,16.00
2022-08-28T04:22:49.437Z,16.00
2022-08-28T04:23:50.424Z,16.00
2022-08-28T04:24:49.416Z,16.00
2022-08-28T04:25:49.404Z,16.00
2022-08-28T04:26:49.397Z,16.00
2022-08-28T04:27:49.402Z,20.00
2022-08-28T04:28:49.375Z,20.00
2022-08-28T04:29:49.360Z,20.00
2022-08-28T04:32:05.078Z,20.00
2022-08-28T04:33:05.012Z,24.00
2022-08-28T04:34:05.041Z,28.00
2022-08-28T04:35:04.979Z,28.00
2022-08-28T04:36:04.967Z,24.00
2022-08-28T04:37:04.959Z,28.00
2022-08-28T04:38:05.736Z,32.00
2022-08-28T04:39:04.965Z,32.00
2022-08-28T04:40:04.983Z,32.00
2022-08-28T04:41:04.914Z,36.00
2022-08-28T04:42:04.901Z,36.00
2022-08-28T04:43:04.891Z,40.00
2022-08-28T04:44:04.879Z,44.00
2022-08-28T04:45:04.883Z,44.00
2022-08-28T04:46:04.937Z,48.00
2022-08-28T04:47:04.846Z,48.00
2022-08-28T04:48:05.518Z,44.00
2022-08-28T04:49:05.826Z,48.00
2022-08-28T04:50:04.813Z,52.00
2022-08-28T04:51:04.807Z,56.00
2022-08-28T04:52:04.793Z,60.00
2022-08-28T04:53:04.781Z,60.00
2022-08-28T04:54:04.769Z,60.00
2022-08-28T04:55:04.759Z,64.00
2022-08-28T04:56:04.748Z,72.00
2022-08-28T04:57:06.435Z,72.00
2022-08-28T04:58:04.725Z,80.00
2022-08-28T04:59:04.712Z,88.00
2022-08-28T05:00:04.704Z,92.00
2022-08-28T05:01:04.746Z,96.00
2022-08-28T05:02:04.710Z,100.00
2022-08-28T05:03:04.735Z,104.00
2022-08-28T05:04:04.660Z,108.00
2022-08-28T05:05:04.646Z,108.00
2022-08-28T05:06:04.636Z,108.00
2022-08-28T05:07:04.625Z,116.00
2022-08-28T05:08:04.615Z,120.00
2022-08-28T05:09:04.609Z,120.00
2022-08-28T05:10:04.592Z,128.00
2022-08-28T05:11:04.585Z,136.00
2022-08-28T05:12:04.570Z,144.00
2022-08-28T05:13:04.561Z,152.00
2022-08-28T05:14:04.827Z,160.00
2022-08-28T05:15:04.542Z,168.00
2022-08-28T05:16:04.600Z,180.00
2022-08-28T05:17:04.516Z,184.00
2022-08-28T05:18:04.505Z,188.00
2022-08-28T05:19:04.494Z,188.00
2022-08-28T05:20:04.480Z,184.00
2022-08-28T05:21:04.486Z,184.00
2022-08-28T05:22:04.460Z,188.00
2022-08-28T05:23:04.449Z,192.00
2022-08-28T05:24:04.437Z,204.00
2022-08-28T05:25:04.426Z,216.00
2022-08-28T05:26:04.415Z,220.00
2022-08-28T05:27:04.409Z,224.00
2022-08-28T05:28:04.400Z,224.00
2022-08-28T05:29:04.382Z,232.00
2022-08-28T05:30:04.372Z,244.00
2022-08-28T05:31:04.360Z,252.00
2022-08-28T05:32:04.347Z,260.00
2022-08-28T05:33:04.368Z,260.00
2022-08-28T05:34:04.325Z,252.00
2022-08-28T05:35:04.315Z,248.00
2022-08-28T05:36:04.306Z,244.00
2022-08-28T05:37:04.293Z,240.00
2022-08-28T05:38:04.281Z,236.00
2022-08-28T05:39:04.293Z,232.00
2022-08-28T05:40:04.322Z,228.00
2022-08-28T05:41:04.248Z,228.00
2022-08-28T05:42:04.238Z,220.00
2022-08-28T05:43:04.227Z,212.00
2022-08-28T05:44:04.220Z,204.00
2022-08-28T05:45:04.211Z,208.00
2022-08-28T05:46:04.251Z,216.00
2022-08-28T05:47:04.186Z,220.00
2022-08-28T05:48:04.172Z,224.00
2022-08-28T05:49:09.167Z,228.00
2022-08-28T05:50:05.153Z,232.00
2022-08-28T05:51:04.140Z,244.00
2022-08-28T05:52:04.125Z,256.00
2022-08-28T05:53:04.117Z,268.00
2022-08-28T05:54:04.103Z,284.00
2022-08-28T05:55:04.093Z,292.00
2022-08-28T05:56:04.097Z,300.00
2022-08-28T05:57:04.071Z,312.00
2022-08-28T05:58:04.059Z,324.00
2022-08-28T05:59:04.056Z,340.00
2022-08-28T06:00:04.038Z,348.00
2022-08-28T06:01:04.026Z,360.00
2022-08-28T06:02:04.592Z,360.00
2022-08-28T06:03:04.004Z,360.00
2022-08-28T06:04:04.031Z,356.00
2022-08-28T06:05:03.982Z,344.00
2022-08-28T06:06:03.971Z,340.00
2022-08-28T06:07:03.959Z,332.00
2022-08-28T06:08:04.462Z,332.00
2022-08-28T06:09:03.938Z,336.00
2022-08-28T06:10:03.926Z,336.00
2022-08-28T06:11:03.916Z,336.00
2022-08-28T06:12:03.905Z,348.00
2022-08-28T06:13:03.897Z,364.00
2022-08-28T06:14:03.890Z,380.00
2022-08-28T06:15:03.873Z,416.00
2022-08-28T06:16:03.905Z,424.00
2022-08-28T06:17:03.848Z,428.00
2022-08-28T06:18:03.838Z,440.00
2022-08-28T06:19:03.828Z,452.00
2022-08-28T06:20:03.838Z,460.00
2022-08-28T06:21:03.806Z,468.00
2022-08-28T06:22:07.157Z,476.00
2022-08-28T06:23:03.782Z,484.00
2022-08-28T06:24:03.773Z,476.00
2022-08-28T06:25:06.425Z,476.00
2022-08-28T06:26:03.755Z,472.00
2022-08-28T06:27:03.739Z,472.00
2022-08-28T06:28:03.728Z,472.00
2022-08-28T06:29:03.716Z,472.00
2022-08-28T06:30:03.707Z,468.00
2022-08-28T06:31:22.940Z,460.00
2022-08-28T06:32:04.941Z,464.00
2022-08-28T06:33:03.672Z,464.00
2022-08-28T06:34:03.660Z,460.00
2022-08-28T06:35:03.649Z,468.00
2022-08-28T06:36:03.641Z,456.00
2022-08-28T06:37:03.629Z,476.00
2022-08-28T06:38:03.623Z,488.00
2022-08-28T06:39:03.605Z,500.00
2022-08-28T06:40:03.686Z,504.00
2022-08-28T06:41:03.586Z,528.00
2022-08-28T06:42:03.576Z,528.00
2022-08-28T06:43:03.560Z,552.00
2022-08-28T06:44:03.578Z,532.00
2022-08-28T06:45:03.538Z,600.00
2022-08-28T06:46:03.695Z,608.00
2022-08-28T06:47:03.518Z,640.00
2022-08-28T06:48:03.504Z,732.00
2022-08-28T06:49:03.493Z,712.00
2022-08-28T06:50:03.502Z,660.00
2022-08-28T06:51:03.471Z,664.00
2022-08-28T06:52:03.460Z,808.00
2022-08-28T06:53:03.448Z,632.00
2022-08-28T06:54:03.438Z,668.00
2022-08-28T06:55:03.433Z,640.00
2022-08-28T06:56:03.423Z,616.00
2022-08-28T06:57:03.405Z,640.00
2022-08-28T06:58:03.394Z,604.00
2022-08-28T06:59:03.382Z,604.00
2022-08-28T07:00:03.371Z,648.00
2022-08-28T07:01:03.377Z,696.00
2022-08-28T07:02:03.458Z,664.00
2022-08-28T07:03:03.407Z,660.00
2022-08-28T07:04:03.328Z,656.00
2022-08-28T07:05:03.323Z,664.00
2022-08-28T07:06:03.305Z,716.00
2022-08-28T07:07:03.294Z,728.00
2022-08-28T07:08:03.299Z,644.00
2022-08-28T07:09:03.272Z,668.00
2022-08-28T07:10:03.263Z,632.00
2022-08-28T07:11:03.249Z,600.00
2022-08-28T07:12:03.238Z,616.00
2022-08-28T07:13:03.227Z,656.00
2022-08-28T07:14:03.238Z,724.00
2022-08-28T07:15:03.206Z,648.00
2022-08-28T07:16:03.280Z,684.00
2022-08-28T07:17:03.183Z,720.00
2022-08-28T07:18:03.174Z,892.00
2022-08-28T07:19:03.162Z,748.00
2022-08-28T07:20:03.160Z,740.00
2022-08-28T07:21:03.138Z,748.00
2022-08-28T07:22:03.128Z,708.00
2022-08-28T07:23:03.116Z,732.00
2022-08-28T07:24:03.106Z,632.00
2022-08-28T07:25:03.097Z,696.00
2022-08-28T07:26:03.090Z,756.00
2022-08-28T07:27:03.072Z,648.00
2022-08-28T07:28:03.061Z,640.00
2022-08-28T07:29:09.676Z,644.00
2022-08-28T07:30:04.036Z,664.00
2022-08-28T07:31:03.082Z,724.00
2022-08-28T07:32:03.036Z,720.00
2022-08-28T07:33:03.006Z,748.00
2022-08-28T07:34:02.996Z,812.00
2022-08-28T07:35:02.984Z,772.00
2022-08-28T07:36:02.972Z,748.00
2022-08-28T07:37:02.960Z,772.00
2022-08-28T07:38:02.958Z,816.00
2022-08-28T07:39:02.939Z,964.00
2022-08-28T07:40:02.977Z,964.00
2022-08-28T07:41:02.916Z,840.00
2022-08-28T07:42:02.905Z,972.00
2022-08-28T07:43:02.894Z,1048.00
2022-08-28T07:44:02.901Z,1356.00
2022-08-28T07:45:02.874Z,1356.00
2022-08-28T07:46:02.905Z,1008.00
2022-08-28T07:47:02.849Z,988.00
2022-08-28T07:48:02.840Z,1144.00
2022-08-28T07:49:02.826Z,848.00
2022-08-28T07:50:02.834Z,1044.00
2022-08-28T07:51:02.806Z,1348.00
2022-08-28T07:52:02.797Z,1384.00
2022-08-28T07:53:02.783Z,1324.00
2022-08-28T07:54:02.772Z,1384.00
2022-08-28T07:55:02.765Z,1028.00
2022-08-28T07:56:02.756Z,956.00
2022-08-28T07:57:02.741Z,996.00
2022-08-28T07:58:02.735Z,1052.00
2022-08-28T07:59:02.717Z,1224.00
2022-08-28T08:00:02.707Z,992.00
2022-08-28T08:01:02.766Z,1176.00
2022-08-28T08:02:02.690Z,1272.00
2022-08-28T08:03:02.780Z,1232.00
2022-08-28T08:04:02.660Z,1340.00
2022-08-28T08:05:02.649Z,1136.00
2022-08-28T08:06:02.638Z,1080.00
2022-08-28T08:07:02.627Z,1088.00
2022-08-28T08:08:02.623Z,1048.00
2022-08-28T08:09:02.604Z,960.00
2022-08-28T08:10:02.596Z,1064.00
2022-08-28T08:11:02.583Z,1256.00
2022-08-28T08:12:02.583Z,1196.00
2022-08-28T08:13:02.561Z,1592.00
2022-08-28T08:14:02.555Z,1592.00
2022-08-28T08:15:02.542Z,1552.00
2022-08-28T08:16:02.618Z,1488.00
2022-08-28T08:17:02.518Z,1360.00
2022-08-28T08:18:02.504Z,1652.00
2022-08-28T08:19:02.498Z,1468.00
2022-08-28T08:20:02.531Z,1336.00
2022-08-28T08:21:02.473Z,1300.00
2022-08-28T08:22:02.461Z,1204.00
2022-08-28T08:23:02.450Z,1524.00
2022-08-28T08:24:02.440Z,1576.00
2022-08-28T08:25:02.427Z,1444.00
2022-08-28T08:26:02.422Z,1428.00
2022-08-28T08:27:02.409Z,1720.00
2022-08-28T08:28:02.394Z,1512.00
2022-08-28T08:29:02.382Z,1056.00
2022-08-28T08:30:02.373Z,1136.00
2022-08-28T08:31:02.406Z,1236.00
2022-08-28T08:32:02.372Z,1732.00
2022-08-28T08:33:02.339Z,1512.00
2022-08-28T08:34:02.327Z,1512.00
2022-08-28T08:35:02.317Z,1696.00
2022-08-28T08:36:02.306Z,1824.00
2022-08-28T08:37:02.296Z,1644.00
2022-08-28T08:38:03.058Z,1512.00
2022-08-28T08:39:02.273Z,1324.00
2022-08-28T08:40:02.318Z,1668.00
2022-08-28T08:41:02.250Z,1804.00
2022-08-28T08:42:02.239Z,1668.00
2022-08-28T08:43:02.232Z,1632.00
2022-08-28T08:44:02.224Z,1968.00
2022-08-28T08:45:02.206Z,1732.00
2022-08-28T08:46:02.257Z,1676.00
2022-08-28T08:47:02.195Z,2136.00
2022-08-28T08:48:02.172Z,1868.00
2022-08-28T08:49:02.166Z,2040.00
2022-08-28T08:50:02.160Z,2072.00
2022-08-28T08:51:02.140Z,2000.00
2022-08-28T08:52:02.130Z,1732.00
2022-08-28T08:53:02.118Z,1872.00
2022-08-28T08:54:02.106Z,1888.00
2022-08-28T08:55:02.097Z,1960.00
2022-08-28T08:56:02.115Z,2004.00
2022-08-28T08:57:02.074Z,1744.00
2022-08-28T08:58:02.062Z,1980.00
2022-08-28T08:59:02.058Z,1964.00
2022-08-28T09:00:02.041Z,2056.00
2022-08-28T09:01:02.107Z,2152.00
2022-08-28T09:02:02.026Z,2032.00
2022-08-28T09:03:02.065Z,1740.00
2022-08-28T09:04:01.996Z,1696.00
2022-08-28T09:05:01.984Z,2076.00
2022-08-28T09:06:01.976Z,2228.00
2022-08-28T09:07:01.963Z,1948.00
2022-08-28T09:08:01.957Z,1780.00
2022-08-28T09:09:01.942Z,2244.00
2022-08-28T09:10:01.969Z,2248.00
2022-08-28T09:11:01.931Z,1760.00
2022-08-28T09:12:01.907Z,1944.00
2022-08-28T09:13:01.895Z,1812.00
2022-08-28T09:14:01.891Z,2112.00
2022-08-28T09:15:01.874Z,1820.00
2022-08-28T09:16:01.900Z,2524.00
2022-08-28T09:17:01.852Z,1920.00
2022-08-28T09:18:01.841Z,2176.00
2022-08-28T09:19:01.829Z,1868.00
2022-08-28T09:20:01.826Z,1468.00
2022-08-28T09:21:01.807Z,1528.00
2022-08-28T09:22:01.796Z,1484.00
2022-08-28T09:23:02.174Z,1484.00
2022-08-28T09:24:05.984Z,1748.00
2022-08-28T09:25:02.794Z,1876.00
2022-08-28T09:26:02.481Z,1976.00
2022-08-28T09:27:01.741Z,2128.00
2022-08-28T09:28:01.731Z,2040.00
2022-08-28T09:29:01.719Z,1740.00
2022-08-28T09:30:07.517Z,1336.00
2022-08-28T09:31:02.764Z,1368.00
2022-08-28T09:32:01.686Z,1732.00
2022-08-28T09:33:01.675Z,2104.00
2022-08-28T09:34:01.664Z,2136.00
2022-08-28T09:35:01.653Z,1940.00
2022-08-28T09:36:01.641Z,1820.00
2022-08-28T09:37:01.639Z,1868.00
2022-08-28T09:38:01.620Z,1404.00
2022-08-28T09:39:01.608Z,1388.00
2022-08-28T09:40:01.683Z,1500.00
2022-08-28T09:41:01.587Z,1968.00
2022-08-28T09:42:01.575Z,1792.00
2022-08-28T09:43:01.593Z,1556.00
2022-08-28T09:44:01.554Z,1588.00
2022-08-28T09:45:01.550Z,1956.00
2022-08-28T09:46:01.601Z,2160.00
2022-08-28T09:47:01.520Z,2356.00
2022-08-28T09:48:01.508Z,2196.00
2022-08-28T09:49:01.503Z,1832.00
2022-08-28T09:50:01.487Z,1640.00
2022-08-28T09:51:01.477Z,1832.00
2022-08-28T09:52:01.467Z,2304.00
2022-08-28T09:53:01.452Z,2064.00
2022-08-28T09:54:01.442Z,2144.00
2022-08-28T09:55:01.461Z,2272.00
2022-08-28T09:56:01.419Z,2360.00
2022-08-28T09:57:01.410Z,2264.00
2022-08-28T09:58:01.398Z,3020.00
2022-08-28T09:59:01.386Z,2992.00
2022-08-28T10:00:01.392Z,3164.00
2022-08-28T10:01:01.396Z,3224.00
2022-08-28T10:02:01.423Z,3036.00
2022-08-28T10:03:04.488Z,3004.00
2022-08-28T10:04:02.390Z,2592.00
2022-08-28T10:05:01.320Z,1716.00
2022-08-28T10:06:01.309Z,1684.00
2022-08-28T10:07:01.304Z,1592.00
2022-08-28T10:08:01.287Z,1360.00
2022-08-28T10:09:01.279Z,1400.00
2022-08-28T10:10:01.265Z,1480.00
2022-08-28T10:11:01.255Z,1344.00
2022-08-28T10:12:01.244Z,1448.00
2022-08-28T10:13:01.237Z,1304.00
2022-08-28T10:14:01.221Z,1332.00
2022-08-28T10:15:01.211Z,1608.00
2022-08-28T10:16:01.245Z,1352.00
2022-08-28T10:17:01.187Z,1320.00
2022-08-28T10:18:01.176Z,1448.00
2022-08-28T10:19:01.172Z,1660.00
2022-08-28T10:20:01.158Z,1600.00
2022-08-28T10:21:01.144Z,1568.00
2022-08-28T10:22:01.133Z,1812.00
2022-08-28T10:23:01.121Z,1996.00
2022-08-28T10:24:01.109Z,1312.00
2022-08-28T10:25:01.105Z,1116.00
2022-08-28T10:26:01.088Z,1076.00
2022-08-28T10:27:01.076Z,1456.00
2022-08-28T10:28:01.071Z,2044.00
2022-08-28T10:29:01.055Z,1984.00
2022-08-28T10:30:05.874Z,2268.00
2022-08-28T10:31:02.075Z,2260.00
2022-08-28T10:32:01.021Z,2048.00
2022-08-28T10:33:01.009Z,2436.00
2022-08-28T10:34:00.998Z,2368.00
2022-08-28T10:35:00.987Z,1972.00
2022-08-28T10:36:00.977Z,1960.00
2022-08-28T10:37:00.982Z,2304.00
2022-08-28T10:38:00.954Z,2272.00
2022-08-28T10:39:00.947Z,2460.00
2022-08-28T10:40:00.986Z,2200.00
2022-08-28T10:41:00.921Z,2276.00
2022-08-28T10:42:00.910Z,2332.00
2022-08-28T10:43:00.907Z,2176.00
2022-08-28T10:44:00.888Z,2256.00
2022-08-28T10:45:01.158Z,2088.00
2022-08-28T10:46:00.944Z,1848.00
2022-08-28T10:47:00.854Z,1584.00
2022-08-28T10:48:00.843Z,2256.00
2022-08-28T10:49:00.838Z,1844.00
2022-08-28T10:50:00.822Z,1444.00
2022-08-28T10:51:00.812Z,2272.00
2022-08-28T10:52:00.802Z,1568.00
2022-08-28T10:53:00.788Z,1296.00
2022-08-28T10:54:00.776Z,1212.00
2022-08-28T10:55:00.772Z,1564.00
2022-08-28T10:56:00.756Z,1256.00
2022-08-28T10:57:00.747Z,1880.00
2022-08-28T10:58:00.733Z,1440.00
2022-08-28T10:59:00.721Z,1220.00
2022-08-28T11:00:00.712Z,1008.00
2022-08-28T11:01:00.776Z,1040.00
2022-08-28T11:02:00.689Z,1440.00
2022-08-28T11:03:00.808Z,1108.00
2022-08-28T11:04:00.667Z,1004.00
2022-08-28T11:05:00.655Z,1100.00
2022-08-28T11:06:00.644Z,1144.00
2022-08-28T11:07:00.649Z,1136.00
2022-08-28T11:08:00.622Z,1132.00
2022-08-28T11:09:00.611Z,1312.00
2022-08-28T11:10:00.600Z,1176.00
2022-08-28T11:11:00.589Z,1188.00
2022-08-28T11:12:02.263Z,1536.00
2022-08-28T11:13:00.572Z,1532.00
2022-08-28T11:14:00.555Z,1280.00
2022-08-28T11:15:00.545Z,1344.00
2022-08-28T11:16:00.535Z,1352.00
2022-08-28T11:17:00.673Z,1472.00
2022-08-28T11:18:00.512Z,1568.00
2022-08-28T11:19:00.506Z,1416.00
2022-08-28T11:20:00.489Z,1368.00
2022-08-28T11:21:00.478Z,1228.00
2022-08-28T11:22:00.468Z,1236.00
2022-08-28T11:23:00.456Z,1308.00
2022-08-28T11:24:00.445Z,1508.00
2022-08-28T11:25:04.414Z,1488.00
2022-08-28T11:26:01.422Z,1396.00
2022-08-28T11:27:00.411Z,1224.00
2022-08-28T11:28:00.401Z,1232.00
2022-08-28T11:29:00.390Z,1116.00
2022-08-28T11:30:00.382Z,2144.00
2022-08-28T11:31:00.417Z,1636.00
2022-08-28T11:32:00.355Z,1632.00
2022-08-28T11:33:00.346Z,1704.00
2022-08-28T11:34:00.334Z,1256.00
2022-08-28T11:35:00.323Z,1148.00
2022-08-28T11:36:00.313Z,1088.00
2022-08-28T11:37:00.336Z,1092.00
2022-08-28T11:38:00.289Z,1052.00
2022-08-28T11:39:00.279Z,1200.00
2022-08-28T11:40:00.375Z,1268.00
2022-08-28T11:41:00.263Z,1128.00
2022-08-28T11:42:00.245Z,1024.00
2022-08-28T11:43:00.251Z,1116.00
2022-08-28T11:44:00.223Z,1000.00
2022-08-28T11:45:00.212Z,1048.00
2022-08-28T11:46:00.323Z,1060.00
2022-08-28T11:47:00.189Z,948.00
2022-08-28T11:48:00.180Z,976.00
2022-08-28T11:49:00.197Z,876.00
2022-08-28T11:50:00.167Z,852.00
2022-08-28T11:51:00.145Z,852.00
2022-08-28T11:52:00.137Z,828.00
2022-08-28T11:53:00.128Z,804.00
2022-08-28T11:54:00.111Z,752.00
2022-08-28T11:55:00.107Z,700.00
2022-08-28T11:56:00.103Z,732.00
2022-08-28T11:57:00.080Z,688.00
2022-08-28T11:58:29.812Z,700.00
2022-08-28T11:59:34.934Z,720.00
2022-08-28T12:00:30.795Z,712.00
2022-08-28T12:01:29.779Z,716.00
2022-08-28T12:02:29.814Z,836.00
2022-08-28T12:03:29.756Z,908.00
2022-08-28T12:04:29.807Z,748.00
2022-08-28T12:05:29.734Z,772.00
2022-08-28T12:06:29.730Z,804.00
2022-08-28T12:07:29.714Z,832.00
2022-08-28T12:08:29.702Z,868.00
2022-08-28T12:09:29.691Z,940.00
2022-08-28T12:10:29.680Z,948.00
2022-08-28T12:11:29.671Z,852.00
2022-08-28T12:12:29.679Z,840.00
2022-08-28T12:13:29.648Z,780.00
2022-08-28T12:14:29.637Z,944.00
2022-08-28T12:15:29.632Z,1396.00
2022-08-28T12:16:29.740Z,1784.00
2022-08-28T12:17:31.492Z,1124.00
2022-08-28T12:18:29.630Z,1620.00
2022-08-28T12:19:29.583Z,1788.00
2022-08-28T12:20:29.572Z,1408.00
2022-08-28T12:21:29.561Z,2464.00
2022-08-28T12:22:29.552Z,2064.00
2022-08-28T12:23:29.538Z,1492.00
2022-08-28T12:24:29.535Z,1136.00
2022-08-28T12:25:29.518Z,988.00
2022-08-28T12:26:29.506Z,1048.00
2022-08-28T12:27:29.495Z,928.00
2022-08-28T12:28:29.484Z,952.00
2022-08-28T12:29:29.475Z,852.00
2022-08-28T12:30:29.527Z,1000.00
2022-08-28T12:31:29.453Z,988.00
2022-08-28T12:32:29.442Z,972.00
2022-08-28T12:33:29.431Z,1232.00
2022-08-28T12:34:29.419Z,1000.00
2022-08-28T12:35:30.101Z,756.00
2022-08-28T12:36:29.405Z,928.00
2022-08-28T12:37:29.389Z,1156.00
2022-08-28T12:38:29.376Z,1068.00
2022-08-28T12:39:29.365Z,968.00